Time;durP1;ratioP1;P1;durP2;ratioP2;P2;SDS_P1;SDS_P2;PMS_P1;PMS_P2;Temp;Humidity;BMP_temperature;BMP_pressure;BME280_temperature;BME280_humidity;BME280_pressure;Samples;Min_cycle;Max_cycle;Signal;HPM_P1;HPM_P2
2022/02/14 00:01:42;;;;;;;5.07;3.03;;;;;;;;;;5031193;28;20437;-48
2022/02/14 00:04:08;;;;;;;10.90;3.20;;;;;;;;;;5031227;28;20410;-50
2022/02/14 00:06:34;;;;;;;6.93;3.00;;;;;;;;;;5031244;28;20899;-50
2022/02/14 00:09:00;;;;;;;7.27;3.47;;;;;;;;;;5030043;28;20486;-49
2022/02/14 00:11:26;;;;;;;4.37;3.40;;;;;;;;;;5031111;28;20488;-49
2022/02/14 00:13:52;;;;;;;5.00;3.37;;;;;;;;;;5029955;28;20469;-48
2022/02/14 00:16:18;;;;;;;9.47;3.50;;;;;;;;;;5031048;28;20401;-49
2022/02/14 00:18:44;;;;;;;6.33;3.60;;;;;;;;;;5031059;28;20411;-49
2022/02/14 00:21:10;;;;;;;4.50;3.70;;;;;;;;;;5030833;28;20429;-49
2022/02/14 00:23:36;;;;;;;5.70;3.40;;;;;;;;;;5012380;28;20433;-49
2022/02/14 00:26:02;;;;;;;6.43;3.30;;;;;;;;;;5030993;28;20404;-49
2022/02/14 00:28:29;;;;;;;7.03;3.20;;;;;;;;;;5030973;28;20484;-49
2022/02/14 00:30:54;;;;;;;4.40;3.00;;;;;;;;;;5030855;28;20464;-50
2022/02/14 00:33:20;;;;;;;3.70;3.20;;;;;;;;;;5032750;28;20739;-51
2022/02/14 00:35:49;;;;;;;7.03;3.60;;;;;;;;;;5035420;28;20429;-48
2022/02/14 00:38:16;;;;;;;7.57;3.30;;;;;;;;;;5035174;28;20476;-49
2022/02/14 00:40:42;;;;;;;6.93;3.30;;;;;;;;;;5034717;28;20452;-49
2022/02/14 00:43:08;;;;;;;5.60;3.30;;;;;;;;;;5034758;28;20410;-50
2022/02/14 00:45:34;;;;;;;6.00;3.40;;;;;;;;;;5033757;28;20919;-49
2022/02/14 00:48:00;;;;;;;5.77;3.40;;;;;;;;;;5034843;28;20429;-48
2022/02/14 00:50:26;;;;;;;7.73;3.40;;;;;;;;;;5034442;28;20529;-49
2022/02/14 00:52:52;;;;;;;10.33;3.43;;;;;;;;;;5034700;28;20406;-48
2022/02/14 00:55:18;;;;;;;5.37;3.70;;;;;;;;;;5035239;28;20407;-50
2022/02/14 00:57:47;;;;;;;4.60;2.97;;;;;;;;;;5034605;28;20405;-49
2022/02/14 01:00:16;;;;;;;3.10;2.80;;;;;;;;;;5034285;28;20420;-50
2022/02/14 01:02:42;;;;;;;4.30;2.90;;;;;;;;;;5034489;28;20508;-49
2022/02/14 01:05:08;;;;;;;3.63;3.00;;;;;;;;;;5034502;28;20890;-49
2022/02/14 01:07:34;;;;;;;5.20;3.27;;;;;;;;;;5034423;28;20473;-50
2022/02/14 01:10:00;;;;;;;4.20;3.00;;;;;;;;;;5033113;28;20444;-50
2022/02/14 01:12:29;;;;;;;4.67;3.07;;;;;;;;;;5034224;28;20460;-50
2022/02/14 01:14:56;;;;;;;2.90;2.40;;;;;;;;;;5034252;28;20398;-50
2022/02/14 01:17:22;;;;;;;7.83;3.60;;;;;;;;;;5034269;28;20401;-49
2022/02/14 01:19:48;;;;;;;8.00;3.60;;;;;;;;;;5033947;28;20445;-50
2022/02/14 01:22:14;;;;;;;7.07;2.80;;;;;;;;;;5034007;28;20973;-50
2022/02/14 01:24:40;;;;;;;4.70;3.33;;;;;;;;;;5034236;28;20401;-50
2022/02/14 01:27:06;;;;;;;4.37;3.00;;;;;;;;;;5034092;28;20410;-50
2022/02/14 01:29:33;;;;;;;7.77;3.77;;;;;;;;;;5033608;28;20444;-50
2022/02/14 01:31:59;;;;;;;7.33;3.20;;;;;;;;;;5033794;28;20466;-49
2022/02/14 01:34:27;;;;;;;12.80;4.10;;;;;;;;;;5033989;28;20420;-50
2022/02/14 01:36:53;;;;;;;10.20;4.20;;;;;;;;;;5033881;28;20485;-49
2022/02/14 01:39:19;;;;;;;3.13;2.93;;;;;;;;;;5033561;28;20415;-49
2022/02/14 01:41:46;;;;;;;4.47;2.67;;;;;;;;;;5032244;28;20436;-50
2022/02/14 01:44:35;;;;;;;5.13;3.03;;;;;;;;;;5033608;28;20497;-50
2022/02/14 01:47:01;;;;;;;6.60;3.00;;;;;;;;;;5023669;28;20426;-49
2022/02/14 01:49:27;;;;;;;5.50;3.20;;;;;;;;;;5033342;28;20805;-49
2022/02/14 01:51:53;;;;;;;3.63;2.80;;;;;;;;;;5033577;28;20454;-49
2022/02/14 01:54:19;;;;;;;3.50;2.60;;;;;;;;;;5033651;28;20830;-50
2022/02/14 01:56:45;;;;;;;4.63;2.87;;;;;;;;;;5033723;28;20777;-49
2022/02/14 01:59:11;;;;;;;12.20;4.90;;;;;;;;;;5033130;28;20918;-49
2022/02/14 02:01:37;;;;;;;3.07;2.87;;;;;;;;;;5033036;28;20412;-49
2022/02/14 02:04:04;;;;;;;3.97;3.17;;;;;;;;;;5033155;28;20427;-49
2022/02/14 02:06:31;;;;;;;2.63;2.43;;;;;;;;;;5033226;28;20945;-49
2022/02/14 02:08:57;;;;;;;7.13;2.70;;;;;;;;;;5031946;28;21010;-50
2022/02/14 02:14:08;;;;;;;2.73;2.53;;;;;;;;;;5033142;28;20397;-49
2022/02/14 02:16:34;;;;;;;4.27;3.43;;;;;;;;;;5033209;28;20400;-49
2022/02/14 02:19:00;;;;;;;5.60;5.03;;;;;;;;;;5032873;28;20404;-49
2022/02/14 02:21:26;;;;;;;2.70;2.50;;;;;;;;;;5033134;28;20401;-49
2022/02/14 02:23:56;;;;;;;6.93;3.33;;;;;;;;;;5032995;28;20429;-49
2022/02/14 02:26:22;;;;;;;5.27;3.23;;;;;;;;;;5033002;28;20392;-50
2022/02/14 02:28:48;;;;;;;4.00;2.47;;;;;;;;;;5032741;28;20836;-49
2022/02/14 02:31:14;;;;;;;7.07;3.27;;;;;;;;;;5032687;28;20453;-50
2022/02/14 02:33:40;;;;;;;4.80;3.40;;;;;;;;;;5032918;28;20929;-50
2022/02/14 02:36:06;;;;;;;6.23;3.17;;;;;;;;;;5032796;28;20847;-50
2022/02/14 02:38:32;;;;;;;3.53;2.67;;;;;;;;;;5031832;28;20430;-49
2022/02/14 02:40:58;;;;;;;6.37;3.23;;;;;;;;;;5032395;28;20509;-50
2022/02/14 02:43:24;;;;;;;8.00;3.70;;;;;;;;;;5032557;28;20411;-50
2022/02/14 02:45:54;;;;;;;8.93;3.30;;;;;;;;;;5032634;28;20845;-50
2022/02/14 02:48:20;;;;;;;7.53;3.13;;;;;;;;;;5032708;28;20765;-49
2022/02/14 02:51:05;;;;;;;3.10;2.40;;;;;;;;;;5032275;28;20484;-50
2022/02/14 02:53:33;;;;;;;5.40;3.23;;;;;;;;;;5032386;28;20402;-49
2022/02/14 02:56:00;;;;;;;8.23;3.60;;;;;;;;;;5014128;28;20770;-49
2022/02/14 02:58:26;;;;;;;4.17;3.10;;;;;;;;;;5032339;28;20401;-49
2022/02/14 03:00:52;;;;;;;3.43;2.90;;;;;;;;;;5032062;28;20797;-49
2022/02/14 03:03:18;;;;;;;7.03;2.90;;;;;;;;;;5032241;28;20420;-49
2022/02/14 03:05:45;;;;;;;5.83;3.03;;;;;;;;;;5032264;28;20409;-49
2022/02/14 03:08:11;;;;;;;9.43;3.33;;;;;;;;;;5032138;28;20409;-49
2022/02/14 03:10:37;;;;;;;5.63;2.50;;;;;;;;;;5030713;28;20477;-50
2022/02/14 03:13:03;;;;;;;5.60;2.90;;;;;;;;;;5031448;28;20402;-50
2022/02/14 03:15:29;;;;;;;5.43;2.97;;;;;;;;;;5031681;28;20484;-50
2022/02/14 03:17:56;;;;;;;3.43;2.57;;;;;;;;;;5032067;28;20506;-50
2022/02/14 03:20:22;;;;;;;3.77;3.07;;;;;;;;;;5031733;28;20421;-50
2022/02/14 03:22:48;;;;;;;5.70;3.10;;;;;;;;;;5031867;28;20463;-50
2022/02/14 03:25:14;;;;;;;2.93;2.63;;;;;;;;;;5031949;28;20412;-50
2022/02/14 03:27:40;;;;;;;5.63;3.30;;;;;;;;;;5031949;28;20406;-49
2022/02/14 03:30:07;;;;;;;3.83;3.53;;;;;;;;;;5031729;28;20870;-50
2022/02/14 03:32:33;;;;;;;4.03;2.60;;;;;;;;;;5031922;28;20579;-49
2022/02/14 03:34:59;;;;;;;3.60;3.13;;;;;;;;;;5031916;28;20413;-49
2022/02/14 03:37:25;;;;;;;3.20;2.43;;;;;;;;;;5031610;28;20493;-49
2022/02/14 03:39:51;;;;;;;11.03;3.60;;;;;;;;;;5030578;28;20450;-49
2022/02/14 03:42:17;;;;;;;5.43;2.90;;;;;;;;;;5031517;28;20413;-50
2022/02/14 03:44:44;;;;;;;3.20;2.73;;;;;;;;;;5031638;28;20436;-49
2022/02/14 03:47:11;;;;;;;7.80;3.50;;;;;;;;;;5031512;28;20404;-49
2022/02/14 03:49:37;;;;;;;11.43;2.90;;;;;;;;;;5031293;28;20428;-50
2022/02/14 03:52:04;;;;;;;4.53;2.90;;;;;;;;;;5031229;28;20603;-50
2022/02/14 03:54:30;;;;;;;6.17;2.77;;;;;;;;;;5031353;28;20896;-49
2022/02/14 03:56:55;;;;;;;3.93;2.57;;;;;;;;;;5031478;28;20410;-50
2022/02/14 03:59:21;;;;;;;4.47;3.00;;;;;;;;;;5031059;28;20996;-49
2022/02/14 04:01:49;;;;;;;4.77;3.67;;;;;;;;;;5031264;28;20413;-50
2022/02/14 04:04:16;;;;;;;2.67;2.47;;;;;;;;;;5031254;28;20409;-49
2022/02/14 04:06:41;;;;;;;3.43;2.70;;;;;;;;;;5030930;28;20404;-49
2022/02/14 04:09:07;;;;;;;7.73;2.70;;;;;;;;;;5029338;28;20503;-49
2022/02/14 04:11:33;;;;;;;4.40;2.80;;;;;;;;;;5031023;28;20464;-50
2022/02/14 04:13:59;;;;;;;3.90;2.80;;;;;;;;;;5031090;28;20422;-50
2022/02/14 04:16:25;;;;;;;5.17;3.20;;;;;;;;;;5031094;28;20399;-50
2022/02/14 04:18:51;;;;;;;4.33;2.80;;;;;;;;;;5030814;28;20404;-50
2022/02/14 04:21:17;;;;;;;3.33;2.60;;;;;;;;;;5030935;28;20943;-50
2022/02/14 04:23:43;;;;;;;7.13;2.93;;;;;;;;;;5030990;28;20807;-50
2022/02/14 04:26:09;;;;;;;4.83;2.63;;;;;;;;;;5030934;28;20778;-50
2022/02/14 04:28:35;;;;;;;6.00;3.50;;;;;;;;;;5030882;28;20412;-50
2022/02/14 04:31:01;;;;;;;3.33;2.43;;;;;;;;;;5030703;28;20457;-50
2022/02/14 04:33:27;;;;;;;4.97;2.67;;;;;;;;;;5030818;28;20462;-49
2022/02/14 04:35:53;;;;;;;4.67;2.77;;;;;;;;;;5030846;28;20409;-49
2022/02/14 04:38:19;;;;;;;4.80;3.17;;;;;;;;;;5030091;28;20428;-50
2022/02/14 04:40:45;;;;;;;6.00;3.40;;;;;;;;;;5030490;28;20447;-50
2022/02/14 04:43:11;;;;;;;2.93;2.63;;;;;;;;;;5030786;28;21029;-50
2022/02/14 04:45:37;;;;;;;3.03;2.60;;;;;;;;;;5030821;28;20416;-49
2022/02/14 04:48:03;;;;;;;2.60;2.07;;;;;;;;;;5029802;28;20437;-50
2022/02/14 04:50:29;;;;;;;9.00;2.97;;;;;;;;;;5030528;28;20442;-49
2022/02/14 04:52:55;;;;;;;4.90;3.63;;;;;;;;;;5030936;28;20398;-49
2022/02/14 04:55:22;;;;;;;3.47;2.30;;;;;;;;;;5031018;28;20916;-50
2022/02/14 04:57:48;;;;;;;3.13;2.63;;;;;;;;;;5030848;28;20482;-50
2022/02/14 05:00:15;;;;;;;2.90;2.70;;;;;;;;;;5030516;28;20426;-50
2022/02/14 05:02:41;;;;;;;3.23;2.43;;;;;;;;;;5030687;28;20460;-50
2022/02/14 05:05:07;;;;;;;3.60;2.90;;;;;;;;;;5030702;28;20415;-50
2022/02/14 05:07:33;;;;;;;2.23;2.03;;;;;;;;;;5012973;28;20489;-50
2022/02/14 05:09:59;;;;;;;3.33;2.53;;;;;;;;;;5029323;28;20449;-51
2022/02/14 05:12:25;;;;;;;3.50;2.20;;;;;;;;;;5030429;28;20475;-49
2022/02/14 05:14:51;;;;;;;4.20;2.27;;;;;;;;;;5030620;28;20391;-49
2022/02/14 05:17:18;;;;;;;6.30;2.70;;;;;;;;;;5030554;28;20398;-49
2022/02/14 05:19:44;;;;;;;3.43;2.30;;;;;;;;;;5032328;28;20415;-50
2022/02/14 05:22:10;;;;;;;3.93;2.40;;;;;;;;;;5034094;28;20521;-50
2022/02/14 05:24:36;;;;;;;3.00;2.43;;;;;;;;;;5034151;28;20920;-50
2022/02/14 05:27:05;;;;;;;2.40;1.93;;;;;;;;;;5034166;28;20417;-50
2022/02/14 05:29:31;;;;;;;5.97;2.60;;;;;;;;;;5033661;28;20987;-50
2022/02/14 05:31:58;;;;;;;2.70;2.40;;;;;;;;;;5033825;28;20549;-50
2022/02/14 05:34:24;;;;;;;2.17;1.97;;;;;;;;;;5033924;28;20429;-49
2022/02/14 05:36:50;;;;;;;2.43;2.20;;;;;;;;;;5033871;28;20411;-49
2022/02/14 05:39:15;;;;;;;2.50;2.30;;;;;;;;;;5032472;28;20961;-50
2022/02/14 05:41:41;;;;;;;3.87;2.10;;;;;;;;;;5033758;28;20461;-50
2022/02/14 05:44:08;;;;;;;2.60;2.40;;;;;;;;;;5033796;28;20445;-49
2022/02/14 05:46:34;;;;;;;2.77;2.50;;;;;;;;;;5033663;28;20458;-50
2022/02/14 05:49:00;;;;;;;3.70;3.40;;;;;;;;;;5033413;28;20418;-49
2022/02/14 05:51:26;;;;;;;4.10;1.90;;;;;;;;;;5033549;28;20548;-49
2022/02/14 05:53:52;;;;;;;4.30;3.03;;;;;;;;;;5033507;28;20413;-50
2022/02/14 05:56:18;;;;;;;3.70;3.40;;;;;;;;;;5033529;28;20882;-50
2022/02/14 05:58:44;;;;;;;2.67;2.40;;;;;;;;;;5033513;28;20786;-49
2022/02/14 06:01:10;;;;;;;2.47;2.27;;;;;;;;;;5033291;28;20424;-50
2022/02/14 06:03:36;;;;;;;3.10;2.30;;;;;;;;;;5033372;28;21112;-50
2022/02/14 06:06:02;;;;;;;2.40;2.20;;;;;;;;;;5033356;28;20403;-50
2022/02/14 06:08:28;;;;;;;3.03;2.20;;;;;;;;;;5033325;28;20438;-50
2022/02/14 06:10:55;;;;;;;5.40;2.43;;;;;;;;;;5032087;28;20478;-50
2022/02/14 06:13:21;;;;;;;6.40;3.10;;;;;;;;;;5033293;28;20462;-49
2022/02/14 06:15:47;;;;;;;3.30;2.40;;;;;;;;;;5033315;28;20410;-49
2022/02/14 06:18:14;;;;;;;3.83;2.17;;;;;;;;;;5033301;28;20402;-49
2022/02/14 06:20:40;;;;;;;7.90;3.43;;;;;;;;;;5032880;28;20499;-49
2022/02/14 06:23:06;;;;;;;2.57;2.37;;;;;;;;;;5033120;28;20960;-49
2022/02/14 06:25:32;;;;;;;2.70;1.83;;;;;;;;;;5033303;28;20403;-50
2022/02/14 06:27:58;;;;;;;2.63;2.43;;;;;;;;;;5033327;28;20922;-50
2022/02/14 06:30:24;;;;;;;4.87;2.77;;;;;;;;;;5031699;28;20541;-50
2022/02/14 06:32:51;;;;;;;3.10;2.00;;;;;;;;;;5032911;28;20812;-50
2022/02/14 06:35:17;;;;;;;2.73;2.50;;;;;;;;;;5032864;28;20890;-50
2022/02/14 06:37:43;;;;;;;2.93;2.23;;;;;;;;;;5032725;28;20488;-50
2022/02/14 06:40:10;;;;;;;2.10;1.87;;;;;;;;;;5031437;28;20520;-50
2022/02/14 06:42:36;;;;;;;3.13;2.20;;;;;;;;;;5032652;28;20402;-49
2022/02/14 06:45:03;;;;;;;2.67;2.50;;;;;;;;;;5032685;28;20934;-50
2022/02/14 06:47:29;;;;;;;3.80;2.20;;;;;;;;;;5031596;28;20429;-50
2022/02/14 06:49:55;;;;;;;2.60;2.00;;;;;;;;;;5032023;28;20913;-50
2022/02/14 06:52:20;;;;;;;3.17;2.57;;;;;;;;;;5028970;28;20935;-50
2022/02/14 06:54:46;;;;;;;3.10;2.20;;;;;;;;;;5032896;28;20418;-48
2022/02/14 06:57:13;;;;;;;2.63;1.50;;;;;;;;;;5032028;28;20449;-48
2022/02/14 06:59:39;;;;;;;3.07;2.77;;;;;;;;;;5030274;28;20480;-48
2022/02/14 07:02:05;;;;;;;2.70;2.50;;;;;;;;;;5031413;28;20452;-49
2022/02/14 07:04:31;;;;;;;3.53;2.27;;;;;;;;;;5032214;28;20399;-49
2022/02/14 07:06:57;;;;;;;2.73;2.40;;;;;;;;;;5031422;28;20911;-50
2022/02/14 07:09:25;;;;;;;2.97;2.63;;;;;;;;;;5031450;28;20492;-49
2022/02/14 07:11:51;;;;;;;3.83;2.40;;;;;;;;;;5032225;28;20500;-48
2022/02/14 07:14:17;;;;;;;2.70;2.50;;;;;;;;;;5031928;28;20764;-48
2022/02/14 07:16:43;;;;;;;2.43;2.23;;;;;;;;;;5031014;28;20879;-48
2022/02/14 07:19:10;;;;;;;4.53;2.40;;;;;;;;;;5031733;28;20910;-51
2022/02/14 07:21:36;;;;;;;2.97;2.67;;;;;;;;;;5032023;28;20409;-48
2022/02/14 07:24:02;;;;;;;2.30;2.10;;;;;;;;;;5032025;28;20894;-48
2022/02/14 07:26:29;;;;;;;2.37;2.17;;;;;;;;;;5031847;28;20456;-48
2022/02/14 07:28:55;;;;;;;3.00;2.50;;;;;;;;;;5030532;28;20450;-48
2022/02/14 07:31:22;;;;;;;3.27;2.57;;;;;;;;;;5031792;28;20446;-50
2022/02/14 07:33:48;;;;;;;2.23;2.13;;;;;;;;;;5031701;28;20905;-49
2022/02/14 07:36:14;;;;;;;2.80;2.00;;;;;;;;;;5031534;28;20395;-48
2022/02/14 07:38:40;;;;;;;4.20;3.10;;;;;;;;;;5031686;28;20845;-49
2022/02/14 07:41:06;;;;;;;2.27;2.07;;;;;;;;;;5031329;28;20447;-48
2022/02/14 07:43:32;;;;;;;7.90;3.17;;;;;;;;;;5031448;28;20909;-48
2022/02/14 07:45:58;;;;;;;2.37;2.17;;;;;;;;;;5031511;28;20405;-48
2022/02/14 07:48:24;;;;;;;5.83;2.20;;;;;;;;;;5031449;28;20405;-48
2022/02/14 07:50:50;;;;;;;2.10;2.00;;;;;;;;;;5030937;28;20600;-50
2022/02/14 07:53:18;;;;;;;4.33;2.50;;;;;;;;;;5031393;28;20425;-48
2022/02/14 07:55:46;;;;;;;3.00;2.57;;;;;;;;;;5031365;28;20492;-48
2022/02/14 07:58:12;;;;;;;2.13;1.93;;;;;;;;;;5030379;28;20488;-48
2022/02/14 08:00:39;;;;;;;2.17;2.07;;;;;;;;;;5030306;28;20913;-48
2022/02/14 08:03:05;;;;;;;1.97;1.87;;;;;;;;;;5031214;28;20401;-51
2022/02/14 08:05:31;;;;;;;3.97;2.30;;;;;;;;;;5031415;28;20390;-47
2022/02/14 08:07:58;;;;;;;2.37;2.10;;;;;;;;;;5030542;28;20450;-48
2022/02/14 08:10:24;;;;;;;2.83;2.63;;;;;;;;;;5029925;28;20914;-48
2022/02/14 08:12:50;;;;;;;2.70;2.03;;;;;;;;;;5027438;28;20921;-48
2022/02/14 08:15:15;;;;;;;4.53;2.10;;;;;;;;;;5029219;28;20406;-47
2022/02/14 08:17:41;;;;;;;5.07;2.20;;;;;;;;;;5030552;28;20464;-48
2022/02/14 08:20:08;;;;;;;3.60;2.07;;;;;;;;;;5030764;28;20449;-48
2022/02/14 08:22:33;;;;;;;2.23;2.03;;;;;;;;;;5031162;28;20460;-49
2022/02/14 08:24:59;;;;;;;2.40;2.00;;;;;;;;;;5031167;28;20409;-52
2022/02/14 08:27:25;;;;;;;3.90;2.30;;;;;;;;;;5031054;28;20406;-50
2022/02/14 08:29:52;;;;;;;4.00;2.37;;;;;;;;;;5029972;28;20461;-49
2022/02/14 08:32:18;;;;;;;3.53;2.40;;;;;;;;;;5030778;28;20448;-51
2022/02/14 08:34:44;;;;;;;2.53;2.03;;;;;;;;;;5030888;28;20568;-49
2022/02/14 08:37:11;;;;;;;3.67;2.43;;;;;;;;;;5031036;28;20870;-48
2022/02/14 08:39:37;;;;;;;4.27;2.53;;;;;;;;;;5029555;28;20537;-49
2022/02/14 08:42:03;;;;;;;2.50;2.30;;;;;;;;;;5030747;28;20451;-48
2022/02/14 08:44:29;;;;;;;4.37;2.10;;;;;;;;;;5030704;28;20410;-49
2022/02/14 08:46:56;;;;;;;3.83;2.50;;;;;;;;;;5030506;28;20418;-50
2022/02/14 08:49:24;;;;;;;2.63;2.17;;;;;;;;;;5030321;28;20426;-47
2022/02/14 08:51:50;;;;;;;3.50;2.10;;;;;;;;;;5030575;28;20454;-50
2022/02/14 08:54:16;;;;;;;2.60;2.00;;;;;;;;;;5032136;28;20402;-49
2022/02/14 08:56:42;;;;;;;4.70;2.33;;;;;;;;;;5034586;28;20892;-49
2022/02/14 08:59:08;;;;;;;3.00;2.27;;;;;;;;;;5033200;28;20432;-48
2022/02/14 09:01:35;;;;;;;3.47;2.10;;;;;;;;;;5034379;28;20406;-48
2022/02/14 09:04:01;;;;;;;6.67;2.07;;;;;;;;;;5034428;28;20434;-48
2022/02/14 09:06:27;;;;;;;3.70;1.80;;;;;;;;;;5034458;28;20489;-48
2022/02/14 09:08:54;;;;;;;4.73;2.47;;;;;;;;;;5034163;28;20409;-48
2022/02/14 09:11:20;;;;;;;2.43;2.20;;;;;;;;;;5034329;28;20476;-50
2022/02/14 09:13:46;;;;;;;2.63;2.10;;;;;;;;;;5034104;28;20402;-50
2022/02/14 09:16:12;;;;;;;3.73;2.00;;;;;;;;;;5034207;28;20455;-47
2022/02/14 09:18:39;;;;;;;3.70;1.90;;;;;;;;;;5034118;28;20434;-47
2022/02/14 09:21:05;;;;;;;3.17;2.10;;;;;;;;;;5033923;28;20763;-50
2022/02/14 09:23:32;;;;;;;13.40;2.97;;;;;;;;;;5034182;28;20410;-49
2022/02/14 09:25:58;;;;;;;4.30;2.30;;;;;;;;;;5034457;28;20886;-47
2022/02/14 09:28:25;;;;;;;2.30;2.00;;;;;;;;;;5032882;28;20592;-50
2022/02/14 09:30:51;;;;;;;4.13;2.53;;;;;;;;;;5033685;28;20499;-47
2022/02/14 09:33:17;;;;;;;2.07;1.93;;;;;;;;;;5032814;28;20420;-48
2022/02/14 09:35:43;;;;;;;2.17;2.00;;;;;;;;;;5033924;28;20396;-48
2022/02/14 09:38:10;;;;;;;3.37;2.03;;;;;;;;;;5032671;28;20402;-49
2022/02/14 09:40:36;;;;;;;3.90;2.13;;;;;;;;;;5033096;28;20446;-50
2022/02/14 09:43:03;;;;;;;1.90;1.80;;;;;;;;;;5033784;28;20820;-48
2022/02/14 09:45:29;;;;;;;5.10;1.93;;;;;;;;;;5033442;28;20438;-48
2022/02/14 09:48:03;;;;;;;3.23;2.10;;;;;;;;;;5033558;28;20443;-48
2022/02/14 09:50:31;;;;;;;2.73;2.53;;;;;;;;;;5033251;28;20796;-50
2022/02/14 09:52:57;;;;;;;3.57;1.97;;;;;;;;;;5033440;28;20499;-47
2022/02/14 09:55:24;;;;;;;2.07;1.80;;;;;;;;;;5033566;28;20399;-48
2022/02/14 09:57:50;;;;;;;2.27;2.07;;;;;;;;;;5032645;28;20438;-47
2022/02/14 10:00:17;;;;;;;2.27;2.07;;;;;;;;;;5033248;28;20422;-50
2022/02/14 10:02:43;;;;;;;2.40;2.20;;;;;;;;;;5033346;28;20409;-48
2022/02/14 10:05:12;;;;;;;3.60;2.03;;;;;;;;;;5032434;28;20485;-49
2022/02/14 10:08:00;;;;;;;2.20;2.00;;;;;;;;;;5032352;28;20526;-48
2022/02/14 10:10:27;;;;;;;2.63;2.13;;;;;;;;;;5032898;28;20914;-48
2022/02/14 10:12:55;;;;;;;5.17;1.77;;;;;;;;;;5032481;28;20473;-47
2022/02/14 10:15:21;;;;;;;3.57;2.37;;;;;;;;;;5033266;28;20886;-48
2022/02/14 10:17:49;;;;;;;8.57;2.20;;;;;;;;;;5033296;28;20410;-48
2022/02/14 10:20:17;;;;;;;3.40;1.90;;;;;;;;;;5032864;28;20461;-49
2022/02/14 10:22:53;;;;;;;2.37;2.17;;;;;;;;;;5033112;28;20809;-48
2022/02/14 10:25:30;;;;;;;6.87;2.50;;;;;;;;;;5033219;28;20411;-48
2022/02/14 10:28:16;;;;;;;2.53;2.30;;;;;;;;;;5033194;28;20427;-47
2022/02/14 10:31:01;;;;;;;2.37;2.10;;;;;;;;;;5018983;28;20820;-48
2022/02/14 10:33:47;;;;;;;5.30;2.17;;;;;;;;;;5032158;28;20472;-48
2022/02/14 10:36:13;;;;;;;1.80;1.70;;;;;;;;;;5031690;28;20461;-48
2022/02/14 10:38:39;;;;;;;2.80;1.80;;;;;;;;;;5033010;28;20391;-48
2022/02/14 10:41:14;;;;;;;1.80;1.70;;;;;;;;;;5032791;28;20473;-48
2022/02/14 10:43:40;;;;;;;3.30;2.50;;;;;;;;;;5012900;28;20403;-48
2022/02/14 10:46:06;;;;;;;1.90;1.80;;;;;;;;;;5012851;28;20470;-48
2022/02/14 10:48:33;;;;;;;4.73;2.10;;;;;;;;;;5013678;28;20421;-48
2022/02/14 10:50:59;;;;;;;1.80;1.70;;;;;;;;;;5029821;28;20460;-51
2022/02/14 10:53:26;;;;;;;1.80;1.70;;;;;;;;;;5032449;28;20963;-51
2022/02/14 10:55:55;;;;;;;2.17;1.90;;;;;;;;;;5032375;28;20399;-51
2022/02/14 10:58:27;;;;;;;1.67;1.57;;;;;;;;;;5032384;28;20403;-48
2022/02/14 11:00:53;;;;;;;2.30;2.10;;;;;;;;;;5031703;28;20882;-48
2022/02/14 11:03:19;;;;;;;3.83;1.40;;;;;;;;;;5032434;28;20403;-48
2022/02/14 11:05:45;;;;;;;1.80;1.20;;;;;;;;;;5032282;28;20941;-51
2022/02/14 11:08:11;;;;;;;1.40;1.30;;;;;;;;;;5032214;28;20399;-48
2022/02/14 11:10:41;;;;;;;1.40;1.00;;;;;;;;;;5030799;28;20939;-48
2022/02/14 11:13:07;;;;;;;5.63;1.20;;;;;;;;;;5032021;28;20419;-48
2022/02/14 11:15:35;;;;;;;1.60;0.97;;;;;;;;;;5031896;28;20403;-51
2022/02/14 11:18:08;;;;;;;3.17;1.07;;;;;;;;;;5031497;28;20403;-48
2022/02/14 11:20:34;;;;;;;1.73;1.50;;;;;;;;;;5031698;28;20436;-51
2022/02/14 11:23:01;;;;;;;1.33;1.23;;;;;;;;;;5031960;28;20492;-48
2022/02/14 11:25:45;;;;;;;1.30;1.20;;;;;;;;;;5031854;28;20876;-49
2022/02/14 11:28:30;;;;;;;1.27;1.00;;;;;;;;;;5031711;28;20493;-48
2022/02/14 11:31:17;;;;;;;1.77;1.30;;;;;;;;;;5031557;28;20481;-48
2022/02/14 11:33:57;;;;;;;1.30;1.20;;;;;;;;;;5031735;28;20421;-49
2022/02/14 11:36:24;;;;;;;1.33;1.07;;;;;;;;;;5031617;28;20411;-47
2022/02/14 11:38:58;;;;;;;2.60;2.13;;;;;;;;;;5031558;28;20481;-52
2022/02/14 11:41:38;;;;;;;1.57;1.47;;;;;;;;;;5031578;28;20403;-48
2022/02/14 11:44:20;;;;;;;1.83;1.23;;;;;;;;;;5031419;28;20798;-51
2022/02/14 11:46:46;;;;;;;1.87;1.50;;;;;;;;;;5031438;28;20391;-48
2022/02/14 11:49:12;;;;;;;1.30;1.20;;;;;;;;;;5031247;28;20428;-48
2022/02/14 11:51:43;;;;;;;2.70;1.50;;;;;;;;;;5031398;28;20481;-48
2022/02/14 11:54:29;;;;;;;1.50;1.40;;;;;;;;;;5031426;28;20494;-51
2022/02/14 11:57:15;;;;;;;1.70;1.60;;;;;;;;;;5031293;28;20427;-48
2022/02/14 11:59:41;;;;;;;2.60;1.57;;;;;;;;;;5010140;28;20456;-48
2022/02/14 12:02:08;;;;;;;2.03;1.63;;;;;;;;;;5031159;28;20960;-47
2022/02/14 12:04:45;;;;;;;2.50;1.50;;;;;;;;;;5031242;28;20485;-48
2022/02/14 12:07:18;;;;;;;2.17;1.17;;;;;;;;;;5031169;28;20408;-48
2022/02/14 12:09:59;;;;;;;1.93;1.13;;;;;;;;;;5030739;28;20431;-48
2022/02/14 12:12:47;;;;;;;1.33;1.23;;;;;;;;;;5030978;28;20468;-50
2022/02/14 12:20:41;;;;;;;1.00;0.70;;;;;;;;;;5031003;28;20934;-48
2022/02/14 12:23:08;;;;;;;1.57;1.23;;;;;;;;;;5031342;28;20779;-47
2022/02/14 12:25:35;;;;;;;2.03;1.20;;;;;;;;;;5031086;28;20412;-50
2022/02/14 12:28:02;;;;;;;1.53;1.30;;;;;;;;;;5030609;28;20408;-48
2022/02/14 12:30:27;;;;;;;1.20;1.10;;;;;;;;;;5028997;28;20458;-48
2022/02/14 12:33:10;;;;;;;1.80;1.00;;;;;;;;;;5030836;28;20453;-48
2022/02/14 12:35:36;;;;;;;1.97;1.37;;;;;;;;;;5031006;28;20406;-47
2022/02/14 12:38:02;;;;;;;1.27;1.17;;;;;;;;;;5030959;28;20443;-48
2022/02/14 12:40:47;;;;;;;4.07;1.20;;;;;;;;;;5030590;28;20453;-48
2022/02/14 12:43:20;;;;;;;1.73;1.30;;;;;;;;;;5030782;28;21030;-47
2022/02/14 12:45:46;;;;;;;1.10;1.00;;;;;;;;;;5030984;28;20798;-50
2022/02/14 12:48:25;;;;;;;1.23;1.10;;;;;;;;;;5030777;28;20404;-48
2022/02/14 12:50:51;;;;;;;3.60;1.23;;;;;;;;;;5030424;28;20448;-49
2022/02/14 12:53:17;;;;;;;3.00;1.43;;;;;;;;;;5030611;28;20916;-49
2022/02/14 12:55:43;;;;;;;2.27;1.33;;;;;;;;;;5031592;28;20768;-51
2022/02/14 12:58:11;;;;;;;2.60;1.00;;;;;;;;;;5029686;28;20493;-51
2022/02/14 13:00:38;;;;;;;1.37;1.20;;;;;;;;;;5029047;28;20453;-52
2022/02/14 13:03:07;;;;;;;1.57;1.10;;;;;;;;;;5029452;28;20409;-51
2022/02/14 13:05:34;;;;;;;1.97;1.00;;;;;;;;;;5030494;28;20467;-52
2022/02/14 13:08:01;;;;;;;2.43;1.10;;;;;;;;;;5031487;28;20403;-49
2022/02/14 13:10:28;;;;;;;2.90;1.50;;;;;;;;;;5030925;28;20915;-51
2022/02/14 13:13:28;;;;;;;1.97;1.20;;;;;;;;;;5013534;28;20498;-52
2022/02/14 13:15:55;;;;;;;1.30;1.10;;;;;;;;;;5032307;28;20500;-53
2022/02/14 13:18:21;;;;;;;1.53;1.00;;;;;;;;;;5033097;28;20460;-52
2022/02/14 13:20:56;;;;;;;4.37;1.30;;;;;;;;;;5032687;28;20433;-51
2022/02/14 13:23:22;;;;;;;1.67;1.27;;;;;;;;;;5029914;28;20416;-50
2022/02/14 13:25:53;;;;;;;2.93;1.10;;;;;;;;;;5033814;28;20406;-52
2022/02/14 13:28:19;;;;;;;2.03;1.37;;;;;;;;;;5031128;28;20483;-53
2022/02/14 13:30:47;;;;;;;5.63;1.50;;;;;;;;;;5030831;28;20422;-53
2022/02/14 13:33:16;;;;;;;2.43;1.20;;;;;;;;;;5030931;28;20395;-53
2022/02/14 13:35:42;;;;;;;3.47;1.60;;;;;;;;;;5032193;28;20418;-52
2022/02/14 13:38:09;;;;;;;3.83;2.17;;;;;;;;;;5030981;28;20402;-53
2022/02/14 13:40:36;;;;;;;2.03;1.10;;;;;;;;;;5034492;28;20431;-52
2022/02/14 13:43:04;;;;;;;1.70;1.17;;;;;;;;;;5036854;28;20427;-52
2022/02/14 13:45:42;;;;;;;2.43;1.37;;;;;;;;;;5036989;28;20404;-53
2022/02/14 13:48:15;;;;;;;1.77;1.43;;;;;;;;;;5037341;28;20890;-51
2022/02/14 13:50:41;;;;;;;1.90;1.10;;;;;;;;;;5034861;28;20426;-52
2022/02/14 13:53:08;;;;;;;2.70;1.23;;;;;;;;;;5034625;28;20395;-53
2022/02/14 13:55:34;;;;;;;2.03;1.10;;;;;;;;;;5035624;28;20435;-50
2022/02/14 13:58:00;;;;;;;1.30;1.20;;;;;;;;;;5035298;28;20389;-53
2022/02/14 14:00:32;;;;;;;1.60;1.50;;;;;;;;;;5033969;28;20973;-51
2022/02/14 14:03:03;;;;;;;1.77;1.30;;;;;;;;;;5036000;28;20477;-52
2022/02/14 14:05:36;;;;;;;3.13;1.50;;;;;;;;;;5036490;28;20885;-51
2022/02/14 14:08:01;;;;;;;3.70;1.47;;;;;;;;;;5035492;28;21159;-50
2022/02/14 14:10:44;;;;;;;1.50;1.20;;;;;;;;;;5035575;28;20437;-50
2022/02/14 14:13:15;;;;;;;2.10;1.50;;;;;;;;;;5034779;28;20468;-49
2022/02/14 14:15:42;;;;;;;1.77;1.30;;;;;;;;;;5033659;28;20872;-52
2022/02/14 14:18:08;;;;;;;1.80;1.40;;;;;;;;;;5034741;28;20373;-52
2022/02/14 14:20:34;;;;;;;3.17;1.60;;;;;;;;;;5031829;28;20430;-50
2022/02/14 14:23:00;;;;;;;1.77;1.40;;;;;;;;;;5033690;28;20395;-53
2022/02/14 14:25:28;;;;;;;5.83;1.40;;;;;;;;;;5034823;28;20401;-52
2022/02/14 14:27:54;;;;;;;3.20;2.63;;;;;;;;;;5034915;28;20898;-53
2022/02/14 14:30:20;;;;;;;3.03;1.50;;;;;;;;;;5034481;28;20476;-52
2022/02/14 14:32:47;;;;;;;2.80;1.60;;;;;;;;;;5035558;28;20545;-52
2022/02/14 14:35:15;;;;;;;2.43;1.67;;;;;;;;;;5018385;28;20452;-52
2022/02/14 14:37:42;;;;;;;2.83;1.47;;;;;;;;;;5036772;28;20404;-53
2022/02/14 14:40:08;;;;;;;1.67;1.20;;;;;;;;;;5035428;28;20501;-52
2022/02/14 14:42:34;;;;;;;3.43;1.40;;;;;;;;;;5036096;28;20418;-52
2022/02/14 14:45:00;;;;;;;3.13;1.43;;;;;;;;;;5035174;28;20402;-52
2022/02/14 14:47:26;;;;;;;6.07;1.30;;;;;;;;;;5035997;28;20416;-52
2022/02/14 14:49:54;;;;;;;1.60;1.50;;;;;;;;;;5035850;28;20422;-52
2022/02/14 14:52:20;;;;;;;2.90;1.57;;;;;;;;;;5035683;28;20451;-51
2022/02/14 14:54:46;;;;;;;3.73;1.40;;;;;;;;;;5036485;28;20761;-50